Terminal Aerodrome Forecast
Issued by NWS

Home | Current Version | Previous Version | Text Only | Print | Product List | Glossary On
Versions: 1 2 3 4 5 6 7 8 9 10 11 12 13 14 15 16 17 18 19 20 21 22 23 24 25 26
000
FTUS45 KREV 170525
TAFTRK
TAF
KTRK 170525Z 1706/1806 00000KT P6SM VCFG SCT120 BKN160
     FM171700 21005KT P6SM SCT100 BKN160=

USA.gov is the U.S. government's official web portal to all federal, state and local government web resources and services.